• Join FlightAware (Why Join?)
  • Login
  • US Flag 
01:59AM EDT


 

Airport Tracker/Info


-or-


 

Live Flight TrackerFlight Track Log ✈ N171CA ✈ 05-Sep-2013 ✈ KCRG - KCRG

Flight Track Log - Related Links

Times and Time Zones

All times are in EDT time to prevent confusion due to time zone crossing. See the N171CA flight status page for this flight to view local times or setup timezone preferences in your user account.

Time Position Orientation Groundspeed Altitude Reporting Facility
EDT Latitude Longitude Course Direction KTS MPH feet Rate Location/Type
07:31AM 30.3178 -81.5378 270° West 86 99 800  Level Jacksonville Center
07:32AM 30.3178 -81.5497 270° West 82 94 1,100 480 Climbing Jacksonville Center
07:33AM 30.3203 -81.5811 275° West 91 105 1,600 540 Climbing Jacksonville Center
07:34AM 30.3228 -81.6100 276° West 94 108 2,200 540 Climbing Jacksonville Center
07:35AM 30.3250 -81.6436 274° West 96 110 2,800 360 Climbing Jacksonville Center
07:36AM 30.3172 -81.6775 255° West 118 136 3,000 60 Climbing Jacksonville Center
07:37AM 30.2944 -81.7067 228° Southwest 129 148 3,000 -60 Level Jacksonville Center
07:38AM 30.2781 -81.7406 241° Southwest 128 147 2,900 -60 Descending Jacksonville Center
07:39AM 30.2617 -81.7767 242° Southwest 129 148 2,900  Level Jacksonville Center
07:40AM 30.2494 -81.8153 250° West 127 146 2,900  Level Jacksonville Center
07:41AM 30.2350 -81.8492 244° Southwest 115 132 2,900  Level Jacksonville Center
07:42AM 30.2167 -81.8831 238° Southwest 116 133 2,900  Level Jacksonville Center
07:43AM 30.2169 -81.9214 270° West 110 127 3,000  Climbing Jacksonville Center
07:44AM 30.2256 -81.9525 288° West 111 128 2,900 -60 Descending Jacksonville Center
07:45AM 30.2217 -81.9936 264° West 107 123 2,900 -300 Level Jacksonville Center
07:46AM 30.2156 -82.0225 256° West 126 145 2,300 -540 Descending Jacksonville Center
07:47AM 30.2342 -82.0006 46° Northeast 110 127 1,900 -480 Descending Jacksonville Center
07:48AM 30.2278 -81.9694 103° East 96 110 1,400 -540 Descending Jacksonville Center
07:50AM 30.2192 -81.9311 105° East 102 117 800 -360 Descending Jacksonville Center
07:50AM 30.2147 -81.9022 100° East 110 127 700 240 Descending Jacksonville Center
07:51AM 30.2039 -81.8736 114° Southeast 104 120 1,300 600 Climbing Jacksonville Center
07:52AM 30.2125 -81.8806 325° Northwest 105 121 2,000 660 Climbing Jacksonville Center
07:54AM 30.2353 -81.8539 45° Northeast 93 107 2,800 660 Climbing Jacksonville Center
07:55AM 30.2539 -81.8369 38° Northeast 93 107 3,500 660 Climbing Jacksonville Center
07:56AM 30.2725 -81.8200 38° Northeast 104 120 4,000 300 Climbing Jacksonville Center
07:57AM 30.2994 -81.8003 32° Northeast 116 133 4,100  Climbing Jacksonville Center
07:58AM 30.3306 -81.7783 31° Northeast 133 153 4,100 -60 Level Jacksonville Center
07:59AM 30.3617 -81.7514 37° Northeast 140 161 4,000 -60 Descending Jacksonville Center
08:00AM 30.3947 -81.7294 30° Northeast 138 159 4,000  Level Jacksonville Center
08:01AM 30.4133 -81.6906 61° Northeast 133 153 4,100  Climbing Jacksonville Center
08:01AM 30.4339 -81.6567 55° Northeast 132 152 4,100 -240 Level Jacksonville Center
08:03AM 30.4522 -81.6203 60° Northeast 129 148 3,700 -540 Descending Jacksonville Center
08:04AM 30.4644 -81.5792 71° East 124 143 3,000 -780 Descending Jacksonville Center
08:05AM 30.4744 -81.5428 72° East 119 137 2,200 -480 Descending Jacksonville Center
08:06AM 30.4928 -81.5136 54° Northeast 120 138 2,100 -120 Descending Jacksonville Center
08:07AM 30.5203 -81.5350 326° Northwest 105 121 2,000 -120 Descending Jacksonville Center
08:08AM 30.5311 -81.5636 294° West 103 119 1,900 -360 Descending Jacksonville Center
08:09AM 30.5292 -81.5950 266° West 95 109 1,300 -480 Descending Jacksonville Center
08:10AM 30.5192 -81.6267 250° West 98 113 900 -480 Descending Jacksonville Center
08:10AM 30.5131 -81.6436 247° West 94 108 500 -120 Descending Jacksonville Center
08:13AM 30.4947 -81.6992 249° West 88 101 500 180 Level Jacksonville Center
08:14AM 30.4697 -81.7044 190° South 112 129 1,200 600 Climbing Jacksonville Center
08:15AM 30.4406 -81.7000 173° South 110 127 1,800 540 Climbing Jacksonville Center
08:16AM 30.4133 -81.6858 156° South 113 130 2,300 480 Climbing Jacksonville Center
08:17AM 30.3839 -81.6742 161° South 115 132 2,800 300 Climbing Jacksonville Center
08:18AM 30.3503 -81.6625 163° South 118 136 3,000  Climbing Jacksonville Center
08:19AM 30.3208 -81.6389 145° Southeast 117 135 2,900  Descending Jacksonville Center
08:20AM 30.2956 -81.6128 138° Southeast 114 131 3,000 60 Climbing Jacksonville Center
08:21AM 30.2764 -81.5864 130° Southeast 110 127 3,100  Climbing Jacksonville Center
08:22AM 30.2511 -81.5581 136° Southeast 121 139 3,000 -60 Descending Jacksonville Center
08:23AM 30.2278 -81.5269 131° Southeast 123 142 3,000 -60 Level Jacksonville Center
08:24AM 30.2067 -81.4986 131° Southeast 122 140 2,900  Descending Jacksonville Center
08:25AM 30.1856 -81.4700 130° Southeast 123 142 3,000 -480 Climbing Jacksonville Center
08:27AM 30.1933 -81.4289 78° East 124 143 2,000 -600 Descending Jacksonville Center
08:27AM 30.2033 -81.3975 70° East 106 122 1,900  Descending Jacksonville Center
08:28AM 30.2222 -81.3925 13° North 108 124 2,000  Climbing Jacksonville Center
08:30AM 30.2453 -81.4139 321° Northwest 90 104 1,900  Descending Jacksonville Center
08:30AM 30.2644 -81.4328 320° Northwest 99 114 2,000 -240 Climbing Jacksonville Center
08:31AM 30.2856 -81.4492 326° Northwest 96 110 1,500 -540 Descending Jacksonville Center
08:33AM 30.3025 -81.4731 309° West 95 109 1,000 -600 Descending Jacksonville Center
08:34AM 30.3214 -81.4944 316° Northwest 89 102 400 -600 Descending Jacksonville Center